sensor_id;sensor_type;location;lat;lon;timestamp;temperature;humidity
10046;DHT22;5063;50.878;4.742;2023-02-08T00:00:47;-1.20;99.90
10046;DHT22;5063;50.878;4.742;2023-02-08T00:03:13;-1.20;99.90
10046;DHT22;5063;50.878;4.742;2023-02-08T00:05:39;-1.50;99.90
10046;DHT22;5063;50.878;4.742;2023-02-08T00:08:05;-1.90;99.90
10046;DHT22;5063;50.878;4.742;2023-02-08T00:10:31;-1.30;99.90
10046;DHT22;5063;50.878;4.742;2023-02-08T00:12:56;-1.40;99.90
10046;DHT22;5063;50.878;4.742;2023-02-08T00:15:22;-1.80;99.90
10046;DHT22;5063;50.878;4.742;2023-02-08T00:17:48;-1.40;99.90
10046;DHT22;5063;50.878;4.742;2023-02-08T00:20:14;-1.40;99.90
10046;DHT22;5063;50.878;4.742;2023-02-08T00:22:40;-1.50;99.90
10046;DHT22;5063;50.878;4.742;2023-02-08T00:25:06;-1.70;99.90
10046;DHT22;5063;50.878;4.742;2023-02-08T00:27:32;-1.70;99.90
10046;DHT22;5063;50.878;4.742;2023-02-08T00:29:58;-1.60;99.90
10046;DHT22;5063;50.878;4.742;2023-02-08T00:32:24;-1.60;99.90
10046;DHT22;5063;50.878;4.742;2023-02-08T00:34:50;-1.70;99.90
10046;DHT22;5063;50.878;4.742;2023-02-08T00:37:15;-1.50;99.90
10046;DHT22;5063;50.878;4.742;2023-02-08T00:39:41;-1.60;99.90
10046;DHT22;5063;50.878;4.742;2023-02-08T00:42:07;-1.60;99.90
10046;DHT22;5063;50.878;4.742;2023-02-08T00:44:33;-1.50;99.90
10046;DHT22;5063;50.878;4.742;2023-02-08T00:46:58;-1.60;99.90
10046;DHT22;5063;50.878;4.742;2023-02-08T00:49:24;-1.80;99.90
10046;DHT22;5063;50.878;4.742;2023-02-08T00:51:50;-1.80;99.90
10046;DHT22;5063;50.878;4.742;2023-02-08T00:54:17;-1.90;99.90
10046;DHT22;5063;50.878;4.742;2023-02-08T00:56:43;-1.90;99.90
10046;DHT22;5063;50.878;4.742;2023-02-08T00:59:09;-2.00;99.90
10046;DHT22;5063;50.878;4.742;2023-02-08T01:01:35;-2.00;99.90
10046;DHT22;5063;50.878;4.742;2023-02-08T01:04:01;-2.00;99.90
10046;DHT22;5063;50.878;4.742;2023-02-08T01:06:27;-2.00;99.90
10046;DHT22;5063;50.878;4.742;2023-02-08T01:08:53;-1.90;99.90
10046;DHT22;5063;50.878;4.742;2023-02-08T01:11:21;-1.80;99.90
10046;DHT22;5063;50.878;4.742;2023-02-08T01:13:53;-1.90;99.90
10046;DHT22;5063;50.878;4.742;2023-02-08T01:16:23;-1.90;99.90
10046;DHT22;5063;50.878;4.742;2023-02-08T01:18:51;-2.00;99.90
10046;DHT22;5063;50.878;4.742;2023-02-08T01:21:19;-2.00;99.90
10046;DHT22;5063;50.878;4.742;2023-02-08T01:23:46;-2.00;99.90
10046;DHT22;5063;50.878;4.742;2023-02-08T01:26:13;-2.00;99.90
10046;DHT22;5063;50.878;4.742;2023-02-08T01:28:39;-1.90;99.90
10046;DHT22;5063;50.878;4.742;2023-02-08T01:31:07;-2.10;99.90
10046;DHT22;5063;50.878;4.742;2023-02-08T01:33:34;-2.10;99.90
10046;DHT22;5063;50.878;4.742;2023-02-08T01:36:00;-2.20;99.90
10046;DHT22;5063;50.878;4.742;2023-02-08T01:38:26;-2.00;99.90
10046;DHT22;5063;50.878;4.742;2023-02-08T01:40:51;-2.10;99.90
10046;DHT22;5063;50.878;4.742;2023-02-08T01:43:26;-2.30;99.90
10046;DHT22;5063;50.878;4.742;2023-02-08T01:45:53;-2.20;99.90
10046;DHT22;5063;50.878;4.742;2023-02-08T01:53:29;-2.20;99.90
10046;DHT22;5063;50.878;4.742;2023-02-08T01:55:58;-2.50;99.90
10046;DHT22;5063;50.878;4.742;2023-02-08T01:58:27;-2.30;99.90
10046;DHT22;5063;50.878;4.742;2023-02-08T02:00:54;-2.30;99.90
10046;DHT22;5063;50.878;4.742;2023-02-08T02:03:21;-2.30;99.90
10046;DHT22;5063;50.878;4.742;2023-02-08T02:05:54;-2.00;99.90
10046;DHT22;5063;50.878;4.742;2023-02-08T02:08:22;-2.20;99.90
10046;DHT22;5063;50.878;4.742;2023-02-08T02:10:48;-2.20;99.90
10046;DHT22;5063;50.878;4.742;2023-02-08T02:13:22;-2.20;99.90
10046;DHT22;5063;50.878;4.742;2023-02-08T02:15:50;-2.00;99.90
10046;DHT22;5063;50.878;4.742;2023-02-08T02:18:30;-2.20;99.90
10046;DHT22;5063;50.878;4.742;2023-02-08T02:24:09;-2.10;99.90
10046;DHT22;5063;50.878;4.742;2023-02-08T02:29:55;-2.10;99.90
10046;DHT22;5063;50.878;4.742;2023-02-08T02:36:05;-2.30;99.90
10046;DHT22;5063;50.878;4.742;2023-02-08T02:41:16;-2.10;99.90
10046;DHT22;5063;50.878;4.742;2023-02-08T02:44:08;-2.10;99.90
10046;DHT22;5063;50.878;4.742;2023-02-08T02:46:51;-1.80;99.90
10046;DHT22;5063;50.878;4.742;2023-02-08T02:49:24;-2.10;99.90
10046;DHT22;5063;50.878;4.742;2023-02-08T02:51:56;-2.10;99.90
10046;DHT22;5063;50.878;4.742;2023-02-08T02:54:34;-2.20;99.90
10046;DHT22;5063;50.878;4.742;2023-02-08T02:57:03;-2.30;99.90
10046;DHT22;5063;50.878;4.742;2023-02-08T02:59:36;-2.30;99.90
10046;DHT22;5063;50.878;4.742;2023-02-08T03:02:03;-2.40;99.90
10046;DHT22;5063;50.878;4.742;2023-02-08T03:15:22;-2.30;99.90
10046;DHT22;5063;50.878;4.742;2023-02-08T03:20:33;-2.50;99.90
10046;DHT22;5063;50.878;4.742;2023-02-08T03:23:53;-2.60;99.90
10046;DHT22;5063;50.878;4.742;2023-02-08T03:29:16;-2.60;99.90
10046;DHT22;5063;50.878;4.742;2023-02-08T03:31:45;-2.40;99.90
10046;DHT22;5063;50.878;4.742;2023-02-08T03:34:20;-2.70;99.90
10046;DHT22;5063;50.878;4.742;2023-02-08T03:36:52;-2.60;99.90
10046;DHT22;5063;50.878;4.742;2023-02-08T03:39:26;-2.60;99.90
10046;DHT22;5063;50.878;4.742;2023-02-08T03:41:59;-2.60;99.90
10046;DHT22;5063;50.878;4.742;2023-02-08T03:44:37;-2.70;99.90
10046;DHT22;5063;50.878;4.742;2023-02-08T03:47:15;-2.70;99.90
10046;DHT22;5063;50.878;4.742;2023-02-08T03:49:42;-2.80;99.90
10046;DHT22;5063;50.878;4.742;2023-02-08T03:52:10;-2.70;99.90
10046;DHT22;5063;50.878;4.742;2023-02-08T03:54:43;-2.60;99.90
10046;DHT22;5063;50.878;4.742;2023-02-08T03:57:19;-2.90;99.90
10046;DHT22;5063;50.878;4.742;2023-02-08T03:59:52;-2.90;99.90
10046;DHT22;5063;50.878;4.742;2023-02-08T04:02:20;-2.80;99.90
10046;DHT22;5063;50.878;4.742;2023-02-08T04:04:48;-2.60;99.90
10046;DHT22;5063;50.878;4.742;2023-02-08T04:07:18;-2.70;99.90
10046;DHT22;5063;50.878;4.742;2023-02-08T04:09:44;-2.40;99.90
10046;DHT22;5063;50.878;4.742;2023-02-08T04:12:11;-2.60;99.90
10046;DHT22;5063;50.878;4.742;2023-02-08T04:14:37;-2.40;99.90
10046;DHT22;5063;50.878;4.742;2023-02-08T04:17:03;-2.80;99.90
10046;DHT22;5063;50.878;4.742;2023-02-08T04:19:29;-2.60;99.90
10046;DHT22;5063;50.878;4.742;2023-02-08T04:21:55;-2.70;99.90
10046;DHT22;5063;50.878;4.742;2023-02-08T04:24:20;-2.90;99.90
10046;DHT22;5063;50.878;4.742;2023-02-08T04:26:46;-2.80;99.90
10046;DHT22;5063;50.878;4.742;2023-02-08T04:29:13;-2.70;99.90
10046;DHT22;5063;50.878;4.742;2023-02-08T04:31:38;-3.00;99.90
10046;DHT22;5063;50.878;4.742;2023-02-08T04:34:04;-2.90;99.90
10046;DHT22;5063;50.878;4.742;2023-02-08T04:36:30;-2.80;99.90
10046;DHT22;5063;50.878;4.742;2023-02-08T04:38:56;-2.80;99.90
10046;DHT22;5063;50.878;4.742;2023-02-08T04:41:22;-2.90;99.90
10046;DHT22;5063;50.878;4.742;2023-02-08T04:43:47;-2.80;99.90
10046;DHT22;5063;50.878;4.742;2023-02-08T04:46:13;-2.70;99.90
10046;DHT22;5063;50.878;4.742;2023-02-08T04:48:39;-3.00;99.90
10046;DHT22;5063;50.878;4.742;2023-02-08T04:51:05;-3.00;99.90
10046;DHT22;5063;50.878;4.742;2023-02-08T04:53:30;-2.70;99.90
10046;DHT22;5063;50.878;4.742;2023-02-08T04:55:56;-2.80;99.90
10046;DHT22;5063;50.878;4.742;2023-02-08T04:58:22;-3.00;99.90
10046;DHT22;5063;50.878;4.742;2023-02-08T05:00:48;-2.80;99.90
10046;DHT22;5063;50.878;4.742;2023-02-08T05:03:14;-3.00;99.90
10046;DHT22;5063;50.878;4.742;2023-02-08T05:05:40;-3.00;99.90
10046;DHT22;5063;50.878;4.742;2023-02-08T05:08:08;-2.90;99.90
10046;DHT22;5063;50.878;4.742;2023-02-08T05:10:34;-3.10;99.90
10046;DHT22;5063;50.878;4.742;2023-02-08T05:13:00;-3.20;99.90
10046;DHT22;5063;50.878;4.742;2023-02-08T05:15:26;-3.30;99.90
10046;DHT22;5063;50.878;4.742;2023-02-08T05:17:51;-3.00;99.90
10046;DHT22;5063;50.878;4.742;2023-02-08T05:20:17;-3.20;99.90
10046;DHT22;5063;50.878;4.742;2023-02-08T05:22:43;-3.30;99.90
10046;DHT22;5063;50.878;4.742;2023-02-08T05:25:09;-3.30;99.90
10046;DHT22;5063;50.878;4.742;2023-02-08T05:27:35;-3.50;99.90
10046;DHT22;5063;50.878;4.742;2023-02-08T05:30:03;-3.20;99.90
10046;DHT22;5063;50.878;4.742;2023-02-08T05:32:29;-3.20;99.90
10046;DHT22;5063;50.878;4.742;2023-02-08T05:34:54;-3.30;99.90
10046;DHT22;5063;50.878;4.742;2023-02-08T05:37:20;-3.00;99.90
10046;DHT22;5063;50.878;4.742;2023-02-08T05:39:45;-2.90;99.90
10046;DHT22;5063;50.878;4.742;2023-02-08T05:42:11;-3.00;99.90
10046;DHT22;5063;50.878;4.742;2023-02-08T05:44:37;-3.30;99.90
10046;DHT22;5063;50.878;4.742;2023-02-08T05:47:03;-3.10;99.90
10046;DHT22;5063;50.878;4.742;2023-02-08T05:49:29;-3.40;99.90
10046;DHT22;5063;50.878;4.742;2023-02-08T05:51:55;-3.30;99.90
10046;DHT22;5063;50.878;4.742;2023-02-08T05:54:21;-3.20;99.90
10046;DHT22;5063;50.878;4.742;2023-02-08T05:56:46;-2.90;99.90
10046;DHT22;5063;50.878;4.742;2023-02-08T05:59:12;-3.00;99.90
10046;DHT22;5063;50.878;4.742;2023-02-08T06:01:38;-3.10;99.90
10046;DHT22;5063;50.878;4.742;2023-02-08T06:04:03;-3.20;99.90
10046;DHT22;5063;50.878;4.742;2023-02-08T06:06:29;-3.20;99.90
10046;DHT22;5063;50.878;4.742;2023-02-08T06:08:55;-3.20;99.90
10046;DHT22;5063;50.878;4.742;2023-02-08T06:11:21;-3.40;99.90
10046;DHT22;5063;50.878;4.742;2023-02-08T06:13:46;-3.20;99.90
10046;DHT22;5063;50.878;4.742;2023-02-08T06:16:13;-3.40;99.90
10046;DHT22;5063;50.878;4.742;2023-02-08T06:18:39;-3.00;99.90
10046;DHT22;5063;50.878;4.742;2023-02-08T06:21:05;-3.40;99.90
10046;DHT22;5063;50.878;4.742;2023-02-08T06:23:31;-3.20;99.90
10046;DHT22;5063;50.878;4.742;2023-02-08T06:25:56;-3.40;99.90
10046;DHT22;5063;50.878;4.742;2023-02-08T06:28:22;-3.10;99.90
10046;DHT22;5063;50.878;4.742;2023-02-08T06:30:49;-3.30;99.90
10046;DHT22;5063;50.878;4.742;2023-02-08T06:33:15;-3.40;99.90
10046;DHT22;5063;50.878;4.742;2023-02-08T06:35:46;-3.40;99.90
10046;DHT22;5063;50.878;4.742;2023-02-08T06:38:13;-3.40;99.90
10046;DHT22;5063;50.878;4.742;2023-02-08T06:40:39;-3.30;99.90
10046;DHT22;5063;50.878;4.742;2023-02-08T06:43:05;-3.90;99.90
10046;DHT22;5063;50.878;4.742;2023-02-08T06:45:31;-3.00;99.90
10046;DHT22;5063;50.878;4.742;2023-02-08T06:47:56;-3.40;99.90
10046;DHT22;5063;50.878;4.742;2023-02-08T06:50:22;-3.30;99.90
10046;DHT22;5063;50.878;4.742;2023-02-08T06:52:48;-3.30;99.90
10046;DHT22;5063;50.878;4.742;2023-02-08T06:55:14;-3.00;99.90
10046;DHT22;5063;50.878;4.742;2023-02-08T06:57:40;-3.30;99.90
10046;DHT22;5063;50.878;4.742;2023-02-08T07:00:07;-3.00;99.90
10046;DHT22;5063;50.878;4.742;2023-02-08T07:02:32;-3.40;99.90
10046;DHT22;5063;50.878;4.742;2023-02-08T07:04:58;-3.10;99.90
10046;DHT22;5063;50.878;4.742;2023-02-08T07:07:24;-3.40;99.90
10046;DHT22;5063;50.878;4.742;2023-02-08T07:09:50;-3.20;99.90
10046;DHT22;5063;50.878;4.742;2023-02-08T07:12:16;-3.30;99.90
10046;DHT22;5063;50.878;4.742;2023-02-08T07:14:43;-3.10;99.90
10046;DHT22;5063;50.878;4.742;2023-02-08T07:17:10;-2.90;99.90
10046;DHT22;5063;50.878;4.742;2023-02-08T07:19:36;-2.70;99.90
10046;DHT22;5063;50.878;4.742;2023-02-08T07:22:01;-2.70;99.90
10046;DHT22;5063;50.878;4.742;2023-02-08T07:24:37;-2.90;99.90
10046;DHT22;5063;50.878;4.742;2023-02-08T07:27:04;-2.80;99.90
10046;DHT22;5063;50.878;4.742;2023-02-08T07:29:31;-2.80;99.90
10046;DHT22;5063;50.878;4.742;2023-02-08T07:31:58;-2.60;99.90
10046;DHT22;5063;50.878;4.742;2023-02-08T07:34:25;-2.60;99.90
10046;DHT22;5063;50.878;4.742;2023-02-08T07:36:51;-2.50;99.90
10046;DHT22;5063;50.878;4.742;2023-02-08T07:39:16;-2.20;99.90
10046;DHT22;5063;50.878;4.742;2023-02-08T07:41:42;-2.30;99.90
10046;DHT22;5063;50.878;4.742;2023-02-08T07:44:08;-2.10;99.90
10046;DHT22;5063;50.878;4.742;2023-02-08T07:46:34;-1.70;99.90
10046;DHT22;5063;50.878;4.742;2023-02-08T07:49:00;-2.20;99.90
10046;DHT22;5063;50.878;4.742;2023-02-08T07:51:25;-1.60;99.90
10046;DHT22;5063;50.878;4.742;2023-02-08T07:53:51;-1.40;99.90
10046;DHT22;5063;50.878;4.742;2023-02-08T07:56:17;-1.50;99.90
10046;DHT22;5063;50.878;4.742;2023-02-08T07:58:43;-1.30;99.90
10046;DHT22;5063;50.878;4.742;2023-02-08T08:01:09;-1.30;99.90
10046;DHT22;5063;50.878;4.742;2023-02-08T08:03:35;-0.50;99.90
10046;DHT22;5063;50.878;4.742;2023-02-08T08:06:01;0.00;99.90
10046;DHT22;5063;50.878;4.742;2023-02-08T08:08:26;0.10;99.90
10046;DHT22;5063;50.878;4.742;2023-02-08T08:10:52;0.20;99.90
10046;DHT22;5063;50.878;4.742;2023-02-08T08:13:18;0.30;99.90
10046;DHT22;5063;50.878;4.742;2023-02-08T08:15:45;0.70;99.90
10046;DHT22;5063;50.878;4.742;2023-02-08T08:18:11;0.80;99.90
10046;DHT22;5063;50.878;4.742;2023-02-08T08:20:37;1.30;99.90
10046;DHT22;5063;50.878;4.742;2023-02-08T08:23:03;1.80;99.90
10046;DHT22;5063;50.878;4.742;2023-02-08T08:25:29;2.30;99.90
10046;DHT22;5063;50.878;4.742;2023-02-08T08:27:55;2.40;99.90
10046;DHT22;5063;50.878;4.742;2023-02-08T08:30:21;2.50;99.90
10046;DHT22;5063;50.878;4.742;2023-02-08T08:32:47;2.80;99.90
10046;DHT22;5063;50.878;4.742;2023-02-08T08:35:13;2.60;99.90
10046;DHT22;5063;50.878;4.742;2023-02-08T08:37:38;2.40;99.90
10046;DHT22;5063;50.878;4.742;2023-02-08T08:40:05;3.40;99.90
10046;DHT22;5063;50.878;4.742;2023-02-08T08:42:32;3.90;99.90
10046;DHT22;5063;50.878;4.742;2023-02-08T08:44:58;4.30;99.90
10046;DHT22;5063;50.878;4.742;2023-02-08T08:47:24;5.10;99.90
10046;DHT22;5063;50.878;4.742;2023-02-08T08:49:49;5.50;99.90
10046;DHT22;5063;50.878;4.742;2023-02-08T08:52:15;5.70;99.90
10046;DHT22;5063;50.878;4.742;2023-02-08T08:54:41;5.50;99.90
10046;DHT22;5063;50.878;4.742;2023-02-08T08:57:07;5.50;99.90
10046;DHT22;5063;50.878;4.742;2023-02-08T08:59:33;4.80;99.90
10046;DHT22;5063;50.878;4.742;2023-02-08T09:01:59;3.80;99.90
10046;DHT22;5063;50.878;4.742;2023-02-08T09:04:25;3.20;99.90
10046;DHT22;5063;50.878;4.742;2023-02-08T09:06:52;2.80;99.90
10046;DHT22;5063;50.878;4.742;2023-02-08T09:09:18;2.50;99.90
10046;DHT22;5063;50.878;4.742;2023-02-08T09:11:45;2.20;99.90
10046;DHT22;5063;50.878;4.742;2023-02-08T09:14:11;2.20;99.90
10046;DHT22;5063;50.878;4.742;2023-02-08T09:16:38;2.30;99.90
10046;DHT22;5063;50.878;4.742;2023-02-08T09:19:05;1.90;99.90
10046;DHT22;5063;50.878;4.742;2023-02-08T09:21:32;2.00;99.90
10046;DHT22;5063;50.878;4.742;2023-02-08T09:23:59;2.00;99.90
10046;DHT22;5063;50.878;4.742;2023-02-08T09:26:25;2.20;99.90
10046;DHT22;5063;50.878;4.742;2023-02-08T09:28:51;2.40;99.90
10046;DHT22;5063;50.878;4.742;2023-02-08T09:31:25;2.30;99.90
10046;DHT22;5063;50.878;4.742;2023-02-08T09:33:52;2.40;99.90
10046;DHT22;5063;50.878;4.742;2023-02-08T09:36:20;2.60;99.90
10046;DHT22;5063;50.878;4.742;2023-02-08T09:38:47;2.90;99.90
10046;DHT22;5063;50.878;4.742;2023-02-08T09:46:26;3.00;99.90
10046;DHT22;5063;50.878;4.742;2023-02-08T09:48:58;3.20;99.90
10046;DHT22;5063;50.878;4.742;2023-02-08T09:51:37;3.20;99.90
10046;DHT22;5063;50.878;4.742;2023-02-08T09:56:46;3.30;99.90
10046;DHT22;5063;50.878;4.742;2023-02-08T09:59:17;3.50;99.90
10046;DHT22;5063;50.878;4.742;2023-02-08T10:01:47;3.40;99.90
10046;DHT22;5063;50.878;4.742;2023-02-08T10:07:19;3.50;99.90
10046;DHT22;5063;50.878;4.742;2023-02-08T10:09:45;3.80;99.90
10046;DHT22;5063;50.878;4.742;2023-02-08T10:12:18;3.70;99.90
10046;DHT22;5063;50.878;4.742;2023-02-08T10:20:30;3.90;99.90
10046;DHT22;5063;50.878;4.742;2023-02-08T10:25:45;4.20;99.90
10046;DHT22;5063;50.878;4.742;2023-02-08T10:28:38;4.30;99.90
10046;DHT22;5063;50.878;4.742;2023-02-08T10:36:37;4.50;99.90
10046;DHT22;5063;50.878;4.742;2023-02-08T10:39:19;4.80;99.90
10046;DHT22;5063;50.878;4.742;2023-02-08T10:41:50;4.90;99.90
10046;DHT22;5063;50.878;4.742;2023-02-08T10:44:29;4.90;99.90
10046;DHT22;5063;50.878;4.742;2023-02-08T10:52:17;5.20;99.90
10046;DHT22;5063;50.878;4.742;2023-02-08T10:54:43;5.30;99.90
10046;DHT22;5063;50.878;4.742;2023-02-08T10:57:26;5.50;99.90
10046;DHT22;5063;50.878;4.742;2023-02-08T11:00:02;5.50;99.90
10046;DHT22;5063;50.878;4.742;2023-02-08T11:02:38;5.60;99.90
10046;DHT22;5063;50.878;4.742;2023-02-08T11:07:32;5.60;99.90
10046;DHT22;5063;50.878;4.742;2023-02-08T11:12:53;5.80;99.90
10046;DHT22;5063;50.878;4.742;2023-02-08T11:15:26;6.00;99.90
10046;DHT22;5063;50.878;4.742;2023-02-08T11:17:59;6.10;99.90
10046;DHT22;5063;50.878;4.742;2023-02-08T11:20:35;6.10;99.90
10046;DHT22;5063;50.878;4.742;2023-02-08T11:23:03;6.20;99.90
10046;DHT22;5063;50.878;4.742;2023-02-08T11:25:39;6.30;99.20
10046;DHT22;5063;50.878;4.742;2023-02-08T11:28:24;6.40;96.70
10046;DHT22;5063;50.878;4.742;2023-02-08T11:31:02;6.60;95.70
10046;DHT22;5063;50.878;4.742;2023-02-08T11:33:32;6.60;97.10
10046;DHT22;5063;50.878;4.742;2023-02-08T11:36:06;6.70;94.00
10046;DHT22;5063;50.878;4.742;2023-02-08T11:38:35;6.70;93.60
10046;DHT22;5063;50.878;4.742;2023-02-08T11:41:14;6.80;94.90
10046;DHT22;5063;50.878;4.742;2023-02-08T11:43:41;6.90;94.30
10046;DHT22;5063;50.878;4.742;2023-02-08T11:46:08;7.00;92.80
10046;DHT22;5063;50.878;4.742;2023-02-08T11:48:43;6.90;92.30
10046;DHT22;5063;50.878;4.742;2023-02-08T11:51:13;7.00;92.40
10046;DHT22;5063;50.878;4.742;2023-02-08T11:53:48;7.00;92.60
10046;DHT22;5063;50.878;4.742;2023-02-08T11:56:15;6.90;89.10
10046;DHT22;5063;50.878;4.742;2023-02-08T11:59:01;6.90;92.00
10046;DHT22;5063;50.878;4.742;2023-02-08T12:01:36;7.00;90.50
10046;DHT22;5063;50.878;4.742;2023-02-08T12:04:06;7.10;91.00
10046;DHT22;5063;50.878;4.742;2023-02-08T12:20:45;7.50;89.80
10046;DHT22;5063;50.878;4.742;2023-02-08T12:36:42;7.60;90.50
10046;DHT22;5063;50.878;4.742;2023-02-08T12:39:37;7.70;90.40
10046;DHT22;5063;50.878;4.742;2023-02-08T12:46:04;7.80;91.30
10046;DHT22;5063;50.878;4.742;2023-02-08T12:56:01;7.90;90.70
10046;DHT22;5063;50.878;4.742;2023-02-08T12:58:39;8.00;90.90
10046;DHT22;5063;50.878;4.742;2023-02-08T13:01:14;7.90;90.20
10046;DHT22;5063;50.878;4.742;2023-02-08T13:06:28;7.90;88.90
10046;DHT22;5063;50.878;4.742;2023-02-08T13:16:48;8.00;90.30
10046;DHT22;5063;50.878;4.742;2023-02-08T13:21:51;8.10;91.10
10046;DHT22;5063;50.878;4.742;2023-02-08T13:26:56;8.10;90.40
10046;DHT22;5063;50.878;4.742;2023-02-08T13:29:22;8.10;90.80
10046;DHT22;5063;50.878;4.742;2023-02-08T13:31:57;8.20;91.40
10046;DHT22;5063;50.878;4.742;2023-02-08T13:35:04;8.20;91.20
10046;DHT22;5063;50.878;4.742;2023-02-08T13:37:24;8.10;90.20
10046;DHT22;5063;50.878;4.742;2023-02-08T13:40:07;8.00;90.50
10046;DHT22;5063;50.878;4.742;2023-02-08T13:42:54;8.10;90.20
10046;DHT22;5063;50.878;4.742;2023-02-08T13:45:33;8.10;89.50
10046;DHT22;5063;50.878;4.742;2023-02-08T13:48:03;8.10;88.30
10046;DHT22;5063;50.878;4.742;2023-02-08T13:50:45;8.10;87.10
10046;DHT22;5063;50.878;4.742;2023-02-08T13:53:12;8.20;88.40
10046;DHT22;5063;50.878;4.742;2023-02-08T13:55:42;8.20;90.00
10046;DHT22;5063;50.878;4.742;2023-02-08T14:03:30;8.20;89.20
10046;DHT22;5063;50.878;4.742;2023-02-08T14:08:44;8.20;88.90
10046;DHT22;5063;50.878;4.742;2023-02-08T14:16:35;8.40;90.00
10046;DHT22;5063;50.878;4.742;2023-02-08T14:19:05;8.40;90.20
10046;DHT22;5063;50.878;4.742;2023-02-08T14:22:03;8.40;90.90
10046;DHT22;5063;50.878;4.742;2023-02-08T14:32:23;8.40;90.30
10046;DHT22;5063;50.878;4.742;2023-02-08T14:35:08;8.40;89.20
10046;DHT22;5063;50.878;4.742;2023-02-08T14:37:43;8.40;89.40
10046;DHT22;5063;50.878;4.742;2023-02-08T14:45:39;8.50;90.10
10046;DHT22;5063;50.878;4.742;2023-02-08T14:48:28;8.30;88.60
10046;DHT22;5063;50.878;4.742;2023-02-08T14:53:54;8.30;87.90
10046;DHT22;5063;50.878;4.742;2023-02-08T14:56:34;8.30;89.40
10046;DHT22;5063;50.878;4.742;2023-02-08T14:59:12;8.40;89.80
10046;DHT22;5063;50.878;4.742;2023-02-08T15:01:53;8.40;88.00
10046;DHT22;5063;50.878;4.742;2023-02-08T15:04:19;8.40;89.40
10046;DHT22;5063;50.878;4.742;2023-02-08T15:09:32;8.40;89.00
10046;DHT22;5063;50.878;4.742;2023-02-08T15:12:24;8.40;87.50
10046;DHT22;5063;50.878;4.742;2023-02-08T15:14:53;8.50;89.30
10046;DHT22;5063;50.878;4.742;2023-02-08T15:19:52;8.40;87.40
10046;DHT22;5063;50.878;4.742;2023-02-08T15:24:55;9.40;87.90
10046;DHT22;5063;50.878;4.742;2023-02-08T15:27:25;10.10;83.70
10046;DHT22;5063;50.878;4.742;2023-02-08T15:29:52;10.20;82.40
10046;DHT22;5063;50.878;4.742;2023-02-08T15:32:21;10.00;82.60
10046;DHT22;5063;50.878;4.742;2023-02-08T15:34:53;9.60;84.30
10046;DHT22;5063;50.878;4.742;2023-02-08T15:37:19;9.30;86.00
10046;DHT22;5063;50.878;4.742;2023-02-08T15:39:50;8.90;87.50
10046;DHT22;5063;50.878;4.742;2023-02-08T15:42:23;8.60;87.00
10046;DHT22;5063;50.878;4.742;2023-02-08T15:44:51;8.30;88.50
10046;DHT22;5063;50.878;4.742;2023-02-08T15:47:24;8.10;89.50
10046;DHT22;5063;50.878;4.742;2023-02-08T15:49:51;7.90;89.80
10046;DHT22;5063;50.878;4.742;2023-02-08T15:52:22;7.70;90.50
10046;DHT22;5063;50.878;4.742;2023-02-08T15:54:49;7.50;91.80
10046;DHT22;5063;50.878;4.742;2023-02-08T15:57:46;7.40;91.70
10046;DHT22;5063;50.878;4.742;2023-02-08T16:00:19;7.30;91.20
10046;DHT22;5063;50.878;4.742;2023-02-08T16:02:58;7.30;91.50
10046;DHT22;5063;50.878;4.742;2023-02-08T16:05:27;7.00;91.70
10046;DHT22;5063;50.878;4.742;2023-02-08T16:07:54;7.00;92.00
10046;DHT22;5063;50.878;4.742;2023-02-08T16:10:33;7.00;92.00
10046;DHT22;5063;50.878;4.742;2023-02-08T16:13:06;6.90;92.30
10046;DHT22;5063;50.878;4.742;2023-02-08T16:15:44;6.80;93.10
10046;DHT22;5063;50.878;4.742;2023-02-08T16:18:40;6.70;93.70
10046;DHT22;5063;50.878;4.742;2023-02-08T16:21:19;6.40;94.50
10046;DHT22;5063;50.878;4.742;2023-02-08T16:23:57;6.10;94.50
10046;DHT22;5063;50.878;4.742;2023-02-08T16:26:26;5.90;95.60
10046;DHT22;5063;50.878;4.742;2023-02-08T16:28:55;5.60;96.50
10046;DHT22;5063;50.878;4.742;2023-02-08T16:31:23;5.40;97.50
10046;DHT22;5063;50.878;4.742;2023-02-08T16:36:49;4.90;99.90
10046;DHT22;5063;50.878;4.742;2023-02-08T16:39:50;4.70;99.90
10046;DHT22;5063;50.878;4.742;2023-02-08T16:42:36;4.40;99.90
10046;DHT22;5063;50.878;4.742;2023-02-08T16:47:39;4.10;99.90
10046;DHT22;5063;50.878;4.742;2023-02-08T16:50:07;3.90;99.90
10046;DHT22;5063;50.878;4.742;2023-02-08T16:52:33;3.80;99.90
10046;DHT22;5063;50.878;4.742;2023-02-08T16:55:00;3.90;99.90
10046;DHT22;5063;50.878;4.742;2023-02-08T16:57:50;3.70;99.90
10046;DHT22;5063;50.878;4.742;2023-02-08T17:00:36;3.60;99.90
10046;DHT22;5063;50.878;4.742;2023-02-08T17:03:02;3.10;99.90
10046;DHT22;5063;50.878;4.742;2023-02-08T17:05:36;3.40;99.90
10046;DHT22;5063;50.878;4.742;2023-02-08T17:08:09;3.20;99.90
10046;DHT22;5063;50.878;4.742;2023-02-08T17:10:37;3.20;99.90
10046;DHT22;5063;50.878;4.742;2023-02-08T17:13:03;3.00;99.90
10046;DHT22;5063;50.878;4.742;2023-02-08T17:15:29;2.90;99.90
10046;DHT22;5063;50.878;4.742;2023-02-08T17:17:56;2.80;99.90
10046;DHT22;5063;50.878;4.742;2023-02-08T17:20:30;2.80;99.90
10046;DHT22;5063;50.878;4.742;2023-02-08T17:22:58;2.70;99.90
10046;DHT22;5063;50.878;4.742;2023-02-08T17:25:25;2.50;99.90
10046;DHT22;5063;50.878;4.742;2023-02-08T17:27:55;2.60;99.90
10046;DHT22;5063;50.878;4.742;2023-02-08T17:32:50;2.50;99.90
10046;DHT22;5063;50.878;4.742;2023-02-08T17:35:17;2.40;99.90
10046;DHT22;5063;50.878;4.742;2023-02-08T17:37:45;2.20;99.90
10046;DHT22;5063;50.878;4.742;2023-02-08T17:40:11;2.60;99.90
10046;DHT22;5063;50.878;4.742;2023-02-08T17:42:37;2.30;99.90
10046;DHT22;5063;50.878;4.742;2023-02-08T17:45:09;2.20;99.90
10046;DHT22;5063;50.878;4.742;2023-02-08T17:47:35;2.30;99.90
10046;DHT22;5063;50.878;4.742;2023-02-08T17:50:09;2.20;99.90
10046;DHT22;5063;50.878;4.742;2023-02-08T17:52:36;2.20;99.90
10046;DHT22;5063;50.878;4.742;2023-02-08T17:55:03;2.10;99.90
10046;DHT22;5063;50.878;4.742;2023-02-08T17:57:31;2.30;99.90
10046;DHT22;5063;50.878;4.742;2023-02-08T17:59:57;2.10;99.90
10046;DHT22;5063;50.878;4.742;2023-02-08T18:02:22;2.30;99.90
10046;DHT22;5063;50.878;4.742;2023-02-08T18:04:48;2.20;99.90
10046;DHT22;5063;50.878;4.742;2023-02-08T18:07:14;2.10;99.90
10046;DHT22;5063;50.878;4.742;2023-02-08T18:09:40;2.20;99.90
10046;DHT22;5063;50.878;4.742;2023-02-08T18:12:06;2.00;99.90
10046;DHT22;5063;50.878;4.742;2023-02-08T18:14:32;2.10;99.90
10046;DHT22;5063;50.878;4.742;2023-02-08T18:16:57;2.00;99.90
10046;DHT22;5063;50.878;4.742;2023-02-08T18:19:23;1.90;99.90
10046;DHT22;5063;50.878;4.742;2023-02-08T18:21:49;1.90;99.90
10046;DHT22;5063;50.878;4.742;2023-02-08T18:24:14;1.90;99.90
10046;DHT22;5063;50.878;4.742;2023-02-08T18:26:40;1.90;99.90
10046;DHT22;5063;50.878;4.742;2023-02-08T18:29:08;2.00;99.90
10046;DHT22;5063;50.878;4.742;2023-02-08T18:31:35;1.90;99.90
10046;DHT22;5063;50.878;4.742;2023-02-08T18:34:02;1.90;99.90
10046;DHT22;5063;50.878;4.742;2023-02-08T18:36:27;1.90;99.90
10046;DHT22;5063;50.878;4.742;2023-02-08T18:38:54;1.90;99.90
10046;DHT22;5063;50.878;4.742;2023-02-08T18:41:27;1.80;99.90
10046;DHT22;5063;50.878;4.742;2023-02-08T18:43:54;1.80;99.90
10046;DHT22;5063;50.878;4.742;2023-02-08T18:46:23;2.00;99.90
10046;DHT22;5063;50.878;4.742;2023-02-08T18:48:49;1.70;99.90
10046;DHT22;5063;50.878;4.742;2023-02-08T18:51:16;1.70;99.90
10046;DHT22;5063;50.878;4.742;2023-02-08T18:53:47;1.90;99.90
10046;DHT22;5063;50.878;4.742;2023-02-08T18:56:13;1.80;99.90
10046;DHT22;5063;50.878;4.742;2023-02-08T18:58:39;1.90;99.90